createdAt,value
2019-05-17T00:01:50.636Z,25.35
2019-05-17T00:04:21.733Z,24.10
2019-05-17T00:06:52.857Z,23.20
2019-05-17T00:09:23.809Z,24.25
2019-05-17T00:11:57.902Z,24.10
2019-05-17T00:14:29.456Z,26.75
2019-05-17T00:17:00.364Z,26.55
2019-05-17T00:19:32.402Z,25.30
2019-05-17T00:22:03.535Z,25.05
2019-05-17T00:24:37.014Z,25.65
2019-05-17T00:27:11.090Z,25.57
2019-05-17T00:29:42.814Z,25.32
2019-05-17T00:32:13.920Z,27.65
2019-05-17T00:34:46.880Z,25.75
2019-05-17T00:37:17.395Z,26.02
2019-05-17T00:39:48.671Z,25.80
2019-05-17T00:42:20.798Z,26.80
2019-05-17T00:44:51.600Z,26.05
2019-05-17T00:47:26.629Z,23.55
2019-05-17T00:49:57.848Z,26.42
2019-05-17T00:52:29.780Z,26.12
2019-05-17T00:55:06.787Z,23.07
2019-05-17T00:57:39.246Z,23.95
2019-05-17T01:00:11.154Z,23.70
2019-05-17T01:02:46.873Z,23.85
2019-05-17T01:05:21.802Z,23.15
2019-05-17T01:07:52.935Z,22.48
2019-05-17T01:10:31.533Z,21.68
2019-05-17T01:13:03.001Z,21.57
2019-05-17T01:15:36.640Z,20.57
2019-05-17T01:18:07.517Z,22.37
2019-05-17T01:20:38.381Z,21.97
2019-05-17T01:23:12.295Z,23.65
2019-05-17T01:25:44.539Z,22.37
2019-05-17T01:28:16.377Z,21.00
2019-05-17T01:30:47.883Z,21.57
2019-05-17T01:33:20.334Z,21.37
2019-05-17T01:35:52.948Z,21.33
2019-05-17T01:38:26.514Z,21.65
2019-05-17T01:40:59.001Z,20.55
2019-05-17T01:43:33.009Z,23.40
2019-05-17T01:46:06.749Z,22.95
2019-05-17T01:48:40.186Z,20.45
2019-05-17T01:51:16.912Z,21.40
2019-05-17T01:53:48.709Z,22.60
2019-05-17T01:56:19.924Z,20.92
2019-05-17T01:58:50.997Z,21.77
2019-05-17T02:01:24.535Z,20.97
2019-05-17T02:03:57.505Z,20.35
2019-05-17T02:06:28.678Z,20.65
2019-05-17T02:08:59.897Z,21.15
2019-05-17T02:11:43.794Z,21.37
2019-05-17T02:14:18.490Z,18.65
2019-05-17T02:16:52.780Z,19.80
2019-05-17T02:19:26.430Z,20.15
2019-05-17T02:21:57.265Z,19.90
2019-05-17T02:27:40.701Z,21.07
2019-05-17T02:30:13.624Z,21.42
2019-05-17T02:32:43.428Z,19.57
2019-05-17T02:35:24.394Z,20.05
2019-05-17T02:37:54.095Z,19.15
2019-05-17T02:40:25.056Z,19.77
2019-05-17T02:42:56.065Z,19.32
2019-05-17T02:45:27.216Z,19.73
2019-05-17T02:47:58.742Z,20.48
2019-05-17T02:50:32.786Z,18.50
2019-05-17T02:53:04.417Z,19.40
2019-05-17T02:55:35.908Z,19.42
2019-05-17T02:58:12.604Z,19.25
2019-05-17T03:00:44.240Z,19.00
2019-05-17T03:03:14.599Z,17.95
2019-05-17T03:05:45.902Z,19.00
2019-05-17T03:08:17.186Z,19.12
2019-05-17T03:10:48.487Z,19.23
2019-05-17T03:13:23.189Z,17.87
2019-05-17T03:15:52.998Z,23.18
2019-05-17T03:18:24.143Z,18.42
2019-05-17T03:20:55.066Z,17.70
2019-05-17T03:23:26.503Z,18.23
2019-05-17T03:25:57.938Z,18.75
2019-05-17T03:28:29.121Z,18.05
2019-05-17T03:31:06.844Z,17.65
2019-05-17T03:33:36.784Z,16.05
2019-05-17T03:36:08.134Z,16.93
2019-05-17T03:38:43.245Z,18.02
2019-05-17T03:41:23.525Z,16.77
2019-05-17T03:43:46.861Z,18.82
2019-05-17T03:46:18.288Z,17.85
2019-05-17T03:48:58.777Z,17.55
2019-05-17T03:51:33.004Z,18.15
2019-05-17T03:54:03.805Z,18.02
2019-05-17T03:56:37.833Z,18.15
2019-05-17T03:59:12.985Z,16.87
2019-05-17T04:01:43.577Z,17.73
2019-05-17T04:04:14.709Z,17.40
2019-05-17T04:06:45.796Z,18.17
2019-05-17T04:09:16.787Z,16.30
2019-05-17T04:11:53.243Z,15.70
2019-05-17T04:14:23.920Z,17.32
2019-05-17T04:16:55.249Z,17.70
2019-05-17T04:19:33.765Z,15.88
2019-05-17T04:22:06.293Z,17.55
2019-05-17T04:24:39.111Z,17.05
2019-05-17T04:27:13.717Z,17.55
2019-05-17T04:29:47.108Z,17.40
2019-05-17T04:32:18.052Z,16.65
2019-05-17T04:34:56.666Z,16.62
2019-05-17T04:37:28.661Z,16.20
2019-05-17T04:40:03.120Z,15.03
2019-05-17T04:42:33.338Z,17.17
2019-05-17T04:45:04.207Z,17.02
2019-05-17T04:47:35.184Z,15.38
2019-05-17T04:50:06.886Z,15.50
2019-05-17T04:52:42.901Z,16.27
2019-05-17T04:55:14.266Z,16.05
2019-05-17T04:57:46.439Z,15.03
2019-05-17T05:00:25.543Z,15.00
2019-05-17T05:02:58.745Z,15.80
2019-05-17T05:05:33.048Z,16.55
2019-05-17T05:08:06.528Z,16.77
2019-05-17T05:10:42.756Z,16.25
2019-05-17T05:13:17.882Z,16.73
2019-05-17T05:15:56.504Z,16.82
2019-05-17T05:18:25.715Z,16.45
2019-05-17T05:20:57.833Z,16.37
2019-05-17T05:23:28.988Z,16.48
2019-05-17T05:25:59.682Z,16.17
2019-05-17T05:28:31.801Z,16.00
2019-05-17T05:31:03.265Z,15.50
2019-05-17T05:33:35.046Z,15.15
2019-05-17T05:36:11.053Z,16.75
2019-05-17T05:38:43.238Z,15.38
2019-05-17T05:41:15.346Z,15.20
2019-05-17T05:43:46.546Z,16.97
2019-05-17T05:46:22.235Z,16.93
2019-05-17T05:48:52.754Z,15.10
2019-05-17T05:51:23.649Z,15.88
2019-05-17T05:53:54.439Z,16.90
2019-05-17T05:56:28.019Z,15.55
2019-05-17T05:58:59.217Z,16.05
2019-05-17T06:01:32.404Z,15.10
2019-05-17T06:04:02.936Z,16.62
2019-05-17T06:06:35.161Z,15.83
2019-05-17T06:09:15.087Z,14.85
2019-05-17T06:11:46.862Z,16.90
2019-05-17T06:14:18.157Z,15.38
2019-05-17T06:16:51.843Z,14.90
2019-05-17T06:19:22.427Z,15.85
2019-05-17T06:21:54.692Z,15.38
2019-05-17T06:24:26.525Z,16.15
2019-05-17T06:26:57.781Z,14.83
2019-05-17T06:29:32.586Z,15.03
2019-05-17T06:32:08.835Z,15.48
2019-05-17T06:34:42.945Z,15.68
2019-05-17T06:37:16.591Z,15.50
2019-05-17T06:39:52.638Z,15.03
2019-05-17T06:42:37.240Z,16.17
2019-05-17T06:45:12.205Z,15.63
2019-05-17T06:47:42.658Z,15.08
2019-05-17T06:50:16.336Z,15.83
2019-05-17T06:52:53.306Z,15.55
2019-05-17T06:55:27.353Z,14.18
2019-05-17T06:57:58.633Z,15.35
2019-05-17T07:00:32.281Z,15.68
2019-05-17T07:03:03.280Z,14.75
2019-05-17T07:05:40.377Z,14.90
2019-05-17T07:08:20.035Z,15.18
2019-05-17T07:10:51.652Z,15.80
2019-05-17T07:13:23.988Z,15.32
2019-05-17T07:15:55.161Z,15.60
2019-05-17T07:18:29.999Z,16.12
2019-05-17T07:21:04.741Z,14.73
2019-05-17T07:23:39.517Z,14.65
2019-05-17T07:26:12.084Z,13.83
2019-05-17T07:28:45.435Z,14.50
2019-05-17T07:31:22.996Z,13.15
2019-05-17T07:33:53.110Z,13.48
2019-05-17T07:36:24.230Z,13.60
2019-05-17T07:39:00.757Z,13.65
2019-05-17T07:41:33.026Z,13.88
2019-05-17T07:44:04.326Z,13.90
2019-05-17T07:46:36.440Z,14.47
2019-05-17T07:49:07.559Z,14.63
2019-05-17T07:51:39.611Z,13.93
2019-05-17T07:54:11.626Z,15.05
2019-05-17T07:56:53.749Z,14.85
2019-05-17T07:59:21.284Z,14.53
2019-05-17T08:02:05.735Z,15.53
2019-05-17T08:04:40.637Z,15.43
2019-05-17T08:07:14.026Z,15.45
2019-05-17T08:09:50.464Z,16.62
2019-05-17T08:12:30.013Z,16.17
2019-05-17T08:15:00.578Z,16.40
2019-05-17T08:17:31.607Z,16.02
2019-05-17T08:20:04.978Z,15.53
2019-05-17T08:22:39.948Z,16.32
2019-05-17T08:25:12.193Z,17.45
2019-05-17T08:27:43.508Z,15.63
2019-05-17T08:30:15.186Z,16.07
2019-05-17T08:32:50.276Z,15.65
2019-05-17T08:35:19.810Z,14.93
2019-05-17T08:37:52.800Z,15.85
2019-05-17T08:40:25.940Z,15.65
2019-05-17T08:42:57.047Z,16.17
2019-05-17T08:45:29.581Z,14.93
2019-05-17T08:48:00.711Z,15.75
2019-05-17T08:50:33.678Z,16.40
2019-05-17T08:53:07.224Z,14.98
2019-05-17T08:55:43.588Z,16.40
2019-05-17T08:58:21.507Z,14.80
2019-05-17T09:01:00.045Z,15.10
2019-05-17T09:03:36.910Z,14.63
2019-05-17T09:06:11.975Z,14.50
2019-05-17T09:08:42.705Z,14.87
2019-05-17T09:11:39.559Z,15.08
2019-05-17T09:14:13.585Z,14.95
2019-05-17T09:16:51.943Z,14.78
2019-05-17T09:19:23.050Z,14.18
2019-05-17T09:21:55.284Z,15.93
2019-05-17T09:24:27.191Z,15.20
2019-05-17T09:26:59.852Z,15.00
2019-05-17T09:29:30.968Z,15.43
2019-05-17T09:32:01.861Z,14.60
2019-05-17T09:34:32.971Z,14.33
2019-05-17T09:37:09.720Z,15.23
2019-05-17T09:39:40.271Z,15.18
2019-05-17T09:42:11.588Z,15.10
2019-05-17T09:44:45.751Z,15.40
2019-05-17T09:47:20.655Z,13.90
2019-05-17T09:49:52.558Z,14.38
2019-05-17T09:52:24.088Z,15.75
2019-05-17T09:54:55.264Z,15.90
2019-05-17T09:57:29.832Z,15.38
2019-05-17T10:00:00.905Z,14.80
2019-05-17T10:02:31.962Z,15.15
2019-05-17T10:05:04.758Z,14.53
2019-05-17T10:07:35.759Z,15.58
2019-05-17T10:10:10.467Z,14.78
2019-05-17T10:12:42.402Z,14.43
2019-05-17T10:19:15.554Z,14.70
2019-05-17T10:21:46.477Z,15.25
2019-05-17T10:24:19.913Z,13.58
2019-05-17T10:26:50.229Z,14.85
2019-05-17T10:29:23.782Z,14.68
2019-05-17T10:31:54.919Z,14.40
2019-05-17T10:34:25.879Z,14.58
2019-05-17T10:36:57.050Z,14.58
2019-05-17T10:39:29.744Z,14.60
2019-05-17T10:42:00.870Z,14.07
2019-05-17T10:44:43.140Z,14.43
2019-05-17T10:47:04.261Z,14.25
2019-05-17T10:49:35.263Z,15.40
2019-05-17T10:52:06.705Z,14.68
2019-05-17T10:54:40.277Z,14.60
2019-05-17T10:57:14.790Z,14.40
2019-05-17T10:59:49.900Z,15.60
2019-05-17T11:02:22.014Z,14.28
2019-05-17T11:04:53.294Z,13.78
2019-05-17T11:07:25.604Z,15.18
2019-05-17T11:09:59.936Z,15.93
2019-05-17T11:12:29.695Z,15.08
2019-05-17T11:15:10.926Z,14.53
2019-05-17T11:17:34.493Z,15.35
2019-05-17T11:20:07.827Z,16.00
2019-05-17T11:22:51.439Z,16.42
2019-05-17T11:25:24.814Z,16.50
2019-05-17T11:27:55.060Z,16.20
2019-05-17T11:30:26.498Z,16.85
2019-05-17T11:33:01.543Z,18.75
2019-05-17T11:35:46.403Z,17.07
2019-05-17T11:38:16.908Z,17.87
2019-05-17T11:40:49.865Z,17.55
2019-05-17T11:43:21.890Z,18.62
2019-05-17T11:45:52.827Z,18.60
2019-05-17T11:48:23.730Z,17.60
2019-05-17T11:50:55.206Z,18.55
2019-05-17T11:53:26.420Z,18.35
2019-05-17T11:55:57.848Z,18.02
2019-05-17T11:58:28.982Z,17.35
2019-05-17T12:01:00.188Z,16.42
2019-05-17T12:03:31.127Z,17.92
2019-05-17T12:06:02.331Z,18.52
2019-05-17T12:08:33.373Z,19.30
2019-05-17T12:11:04.130Z,18.05
2019-05-17T12:13:35.119Z,18.32
2019-05-17T12:16:06.228Z,18.85
2019-05-17T12:18:37.080Z,18.90
2019-05-17T12:21:08.194Z,18.90
2019-05-17T12:23:38.987Z,19.05
2019-05-17T12:26:10.132Z,17.77
2019-05-17T12:28:44.045Z,19.00
2019-05-17T12:31:15.132Z,18.40
2019-05-17T12:33:46.227Z,17.95
2019-05-17T12:36:17.259Z,19.40
2019-05-17T12:38:49.560Z,19.07
2019-05-17T12:41:20.739Z,18.45
2019-05-17T12:43:53.319Z,18.85
2019-05-17T12:46:26.005Z,17.75
2019-05-17T12:48:56.959Z,19.75
2019-05-17T12:51:27.625Z,19.98
2019-05-17T12:53:58.500Z,19.70
2019-05-17T12:56:29.546Z,20.50
2019-05-17T12:59:00.555Z,21.62
2019-05-17T13:01:32.773Z,20.32
2019-05-17T13:04:03.791Z,20.17
2019-05-17T13:06:34.867Z,20.68
2019-05-17T13:09:06.752Z,20.45
2019-05-17T13:11:37.953Z,18.57
2019-05-17T13:14:10.098Z,19.60
2019-05-17T13:16:44.040Z,18.62
2019-05-17T13:19:16.275Z,19.85
2019-05-17T13:21:47.519Z,18.05
2019-05-17T13:24:18.629Z,19.45
2019-05-17T13:26:49.881Z,19.45
2019-05-17T13:29:21.110Z,17.92
2019-05-17T13:31:52.075Z,18.55
2019-05-17T13:34:23.133Z,19.62
2019-05-17T13:36:54.132Z,18.27
2019-05-17T13:39:30.034Z,18.50
2019-05-17T13:42:00.905Z,21.93
2019-05-17T13:44:31.531Z,21.07
2019-05-17T13:47:02.852Z,20.80
2019-05-17T13:49:33.733Z,19.17
2019-05-17T13:52:06.940Z,20.75
2019-05-17T13:54:38.083Z,19.40
2019-05-17T13:57:11.853Z,20.77
2019-05-17T13:59:42.721Z,21.80
2019-05-17T14:02:13.838Z,19.95
2019-05-17T14:04:44.870Z,20.12
2019-05-17T14:07:15.836Z,20.15
2019-05-17T14:09:46.536Z,18.62
2019-05-17T14:12:17.594Z,19.07
2019-05-17T14:14:48.611Z,20.15
2019-05-17T14:17:19.627Z,17.85
2019-05-17T14:19:51.374Z,19.07
2019-05-17T14:22:22.334Z,19.07
2019-05-17T14:24:53.463Z,19.20
2019-05-17T14:27:24.425Z,18.62
2019-05-17T14:29:56.859Z,20.72
2019-05-17T14:32:27.851Z,19.50
2019-05-17T14:34:59.081Z,18.95
2019-05-17T14:37:30.186Z,20.00
2019-05-17T14:40:01.267Z,19.25
2019-05-17T14:42:32.550Z,20.40
2019-05-17T14:45:03.558Z,20.72
2019-05-17T14:47:34.437Z,19.90
2019-05-17T14:50:06.153Z,20.82
2019-05-17T14:52:37.243Z,18.92
2019-05-17T14:55:09.254Z,20.50
2019-05-17T14:57:42.910Z,19.62
2019-05-17T15:00:12.886Z,19.05
2019-05-17T15:02:44.103Z,19.98
2019-05-17T15:05:16.443Z,18.65
2019-05-17T15:07:47.377Z,19.37
2019-05-17T15:10:19.089Z,19.20
2019-05-17T15:12:50.214Z,18.17
2019-05-17T15:15:28.250Z,19.75
2019-05-17T15:17:53.738Z,19.12
2019-05-17T15:20:26.028Z,20.97
2019-05-17T15:22:57.272Z,21.70
2019-05-17T15:25:28.195Z,20.25
2019-05-17T15:27:59.264Z,20.32
2019-05-17T15:30:30.093Z,20.92
2019-05-17T15:33:01.195Z,19.37
2019-05-17T15:35:32.398Z,17.98
2019-05-17T15:38:03.439Z,19.98
2019-05-17T15:40:34.608Z,19.10
2019-05-17T15:43:06.248Z,19.70
2019-05-17T15:45:37.289Z,19.50
2019-05-17T15:48:07.974Z,19.37
2019-05-17T15:50:38.919Z,19.90
2019-05-17T15:53:09.836Z,21.25
2019-05-17T15:55:40.921Z,20.25
2019-05-17T15:58:11.868Z,20.45
2019-05-17T16:00:43.025Z,20.32
2019-05-17T16:03:14.071Z,20.43
2019-05-17T16:05:45.081Z,21.33
2019-05-17T16:08:16.142Z,19.40
2019-05-17T16:10:47.111Z,20.20
2019-05-17T16:13:18.128Z,20.48
2019-05-17T16:15:49.184Z,19.30
2019-05-17T16:18:20.542Z,21.02
2019-05-17T16:20:51.477Z,20.57
2019-05-17T16:23:22.561Z,20.30
2019-05-17T16:25:53.804Z,21.17
2019-05-17T16:28:24.537Z,20.37
2019-05-17T16:30:55.664Z,21.65
2019-05-17T16:33:26.499Z,20.95
2019-05-17T16:35:57.458Z,21.33
2019-05-17T16:38:28.507Z,20.55
2019-05-17T16:40:59.628Z,21.57
2019-05-17T16:43:30.588Z,21.42
2019-05-17T16:46:01.588Z,21.68
2019-05-17T16:48:32.787Z,20.30
2019-05-17T16:51:03.787Z,21.80
2019-05-17T16:53:34.907Z,21.93
2019-05-17T16:56:05.760Z,22.58
2019-05-17T16:58:36.794Z,21.27
2019-05-17T17:01:08.127Z,22.58
2019-05-17T17:03:44.168Z,21.73
2019-05-17T17:06:11.315Z,22.27
2019-05-17T17:08:43.673Z,21.52
2019-05-17T17:11:14.733Z,22.62
2019-05-17T17:13:45.511Z,21.23
2019-05-17T17:16:16.309Z,20.80
2019-05-17T17:18:47.278Z,20.75
2019-05-17T17:21:18.407Z,21.02
2019-05-17T17:23:49.211Z,21.12
2019-05-17T17:26:20.325Z,20.92
2019-05-17T17:28:51.237Z,21.00
2019-05-17T17:31:22.373Z,21.40
2019-05-17T17:33:53.365Z,21.30
2019-05-17T17:36:24.559Z,20.70
2019-05-17T17:38:55.539Z,21.37
2019-05-17T17:41:26.852Z,21.35
2019-05-17T17:43:59.219Z,20.55
2019-05-17T17:46:30.364Z,21.85
2019-05-17T17:49:01.468Z,21.05
2019-05-17T17:51:32.541Z,23.12
2019-05-17T17:54:03.741Z,21.30
2019-05-17T17:56:34.755Z,21.52
2019-05-17T17:59:05.889Z,21.12
2019-05-17T18:01:36.563Z,21.62
2019-05-17T18:04:07.609Z,21.12
2019-05-17T18:06:38.600Z,21.65
2019-05-17T18:09:09.842Z,21.23
2019-05-17T18:11:40.835Z,21.33
2019-05-17T18:14:13.780Z,21.35
2019-05-17T18:16:44.524Z,20.88
2019-05-17T18:19:15.563Z,21.93
2019-05-17T18:21:46.606Z,19.85
2019-05-17T18:24:17.439Z,19.92
2019-05-17T18:26:48.527Z,22.25
2019-05-17T18:29:19.573Z,21.07
2019-05-17T18:31:50.620Z,20.40
2019-05-17T18:34:21.717Z,20.57
2019-05-17T18:36:52.878Z,19.98
2019-05-17T18:39:23.727Z,21.40
2019-05-17T18:41:54.972Z,21.25
2019-05-17T18:44:27.730Z,21.02
2019-05-17T18:46:58.306Z,21.17
2019-05-17T18:49:29.081Z,20.60
2019-05-17T18:52:00.140Z,20.62
2019-05-17T18:54:31.474Z,21.45
2019-05-17T18:57:02.476Z,20.68
2019-05-17T18:59:33.314Z,20.40
2019-05-17T19:02:04.409Z,21.70
2019-05-17T19:04:35.217Z,22.32
2019-05-17T19:07:06.164Z,20.82
2019-05-17T19:09:37.297Z,22.87
2019-05-17T19:12:08.611Z,21.87
2019-05-17T19:14:42.855Z,22.00
2019-05-17T19:17:12.045Z,21.48
2019-05-17T19:19:43.041Z,21.80
2019-05-17T19:22:13.849Z,22.22
2019-05-17T19:24:44.771Z,21.10
2019-05-17T19:27:15.824Z,21.73
2019-05-17T19:29:46.833Z,21.97
2019-05-17T19:32:17.625Z,20.02
2019-05-17T19:34:48.804Z,20.75
2019-05-17T19:37:19.620Z,21.42
2019-05-17T19:39:50.655Z,22.65
2019-05-17T19:42:23.200Z,22.35
2019-05-17T19:44:59.268Z,21.85
2019-05-17T19:47:26.672Z,21.10
2019-05-17T19:50:00.157Z,21.57
2019-05-17T19:52:31.472Z,21.30
2019-05-17T19:55:02.643Z,21.60
2019-05-17T19:57:33.680Z,22.32
2019-05-17T20:00:05.751Z,21.60
2019-05-17T20:02:36.775Z,21.40
2019-05-17T20:05:09.029Z,21.37
2019-05-17T20:07:40.151Z,22.58
2019-05-17T20:10:11.976Z,23.15
2019-05-17T20:12:43.068Z,22.52
2019-05-17T20:15:17.815Z,21.48
2019-05-17T20:17:46.495Z,22.30
2019-05-17T20:20:17.938Z,21.80
2019-05-17T20:22:48.981Z,22.10
2019-05-17T20:25:20.155Z,21.68
2019-05-17T20:27:51.336Z,20.62
2019-05-17T20:30:22.506Z,21.23
2019-05-17T20:32:53.575Z,21.42
2019-05-17T20:35:24.686Z,21.02
2019-05-17T20:37:55.717Z,22.32
2019-05-17T20:40:26.701Z,22.62
2019-05-17T20:42:57.624Z,21.85
2019-05-17T20:45:33.083Z,21.05
2019-05-17T20:48:00.959Z,21.55
2019-05-17T20:50:32.106Z,21.80
2019-05-17T20:53:16.572Z,23.10
2019-05-17T20:55:35.958Z,21.90
2019-05-17T20:58:06.784Z,21.02
2019-05-17T21:00:37.776Z,22.77
2019-05-17T21:03:09.039Z,22.77
2019-05-17T21:05:39.824Z,21.75
2019-05-17T21:08:10.825Z,22.95
2019-05-17T21:10:41.910Z,22.55
2019-05-17T21:13:12.696Z,23.02
2019-05-17T21:15:47.941Z,22.95
2019-05-17T21:18:15.866Z,23.27
2019-05-17T21:20:47.094Z,22.15
2019-05-17T21:23:18.206Z,22.87
2019-05-17T21:25:49.285Z,22.07
2019-05-17T21:28:20.202Z,22.20
2019-05-17T21:30:51.301Z,22.40
2019-05-17T21:33:22.448Z,21.73
2019-05-17T21:35:53.442Z,23.32
2019-05-17T21:38:24.384Z,23.15
2019-05-17T21:40:55.450Z,23.50
2019-05-17T21:43:26.663Z,22.55
2019-05-17T21:46:03.655Z,23.22
2019-05-17T21:48:31.623Z,22.65
2019-05-17T21:51:02.633Z,23.92
2019-05-17T21:53:33.573Z,22.93
2019-05-17T21:56:04.744Z,23.10
2019-05-17T21:58:35.900Z,23.15
2019-05-17T22:01:09.510Z,24.30
2019-05-17T22:03:40.187Z,21.82
2019-05-17T22:06:11.468Z,23.15
2019-05-17T22:08:42.832Z,23.98
2019-05-17T22:11:13.698Z,24.37
2019-05-17T22:13:44.615Z,23.65
2019-05-17T22:16:19.667Z,23.98
2019-05-17T22:18:48.193Z,24.70
2019-05-17T22:21:37.623Z,24.25
2019-05-17T22:24:09.445Z,23.60
2019-05-17T22:26:40.668Z,25.45
2019-05-17T22:29:11.613Z,24.12
2019-05-17T22:31:42.676Z,25.50
2019-05-17T22:34:13.640Z,24.07
2019-05-17T22:36:44.656Z,26.57
2019-05-17T22:39:15.978Z,26.33
2019-05-17T22:41:50.581Z,26.62
2019-05-17T22:44:21.528Z,26.55
2019-05-17T22:46:52.370Z,26.85
2019-05-17T22:49:23.533Z,27.30
2019-05-17T22:51:54.612Z,26.33
2019-05-17T22:54:25.464Z,26.35
2019-05-17T22:56:56.562Z,27.15
2019-05-17T22:59:27.635Z,28.07
2019-05-17T23:01:58.619Z,27.58
2019-05-17T23:04:30.210Z,26.90
2019-05-17T23:07:01.196Z,25.20
2019-05-17T23:09:32.376Z,26.42
2019-05-17T23:12:03.392Z,28.10
2019-05-17T23:14:34.468Z,26.27
2019-05-17T23:17:05.395Z,28.55
2019-05-17T23:19:36.263Z,26.80
2019-05-17T23:22:07.657Z,29.50
2019-05-17T23:24:38.784Z,29.40
2019-05-17T23:27:09.723Z,28.85
2019-05-17T23:29:41.266Z,28.57
2019-05-17T23:32:12.242Z,29.15
2019-05-17T23:34:43.174Z,28.92
2019-05-17T23:37:14.106Z,29.18
2019-05-17T23:39:45.204Z,28.45
2019-05-17T23:42:16.088Z,27.20
2019-05-17T23:44:46.991Z,26.27
2019-05-17T23:47:18.075Z,27.25
2019-05-17T23:49:49.043Z,27.40
2019-05-17T23:52:19.924Z,27.65
2019-05-17T23:54:51.174Z,25.60
2019-05-17T23:57:23.763Z,25.68
2019-05-17T23:59:55.267Z,26.23
